Theux, Belgium
Current Conditions -  °F | °C
As of 4:25 PM on Friday 31 Oct 2014 (Local Time) from EBLB Reporting Station
Broken Clouds Broken Clouds  
Wind Chill: 57°   Ceiling: 21000
Heat Index: 57°   Visibility: 6mi
Dew Point: 48°   Wind: 3mph
Humidity: 72%   Direction: 230°SW
Pressure: 30.24"   Gusts: NA
Location:  50.53°N, 5.81°E
Report Text: EBLB 311525Z 23003KT 9999 FEW100 BKN210 14/09 Q1024 BLU
Loading
Personal Weather Stations






























Interactive Weather Map
Tropical Storm Tracking
New forecast layout! Learn more

10-Day Weather Forecast

Advertisements
Track Severe Weather on mobile